Time;durP1;ratioP1;P1;durP2;ratioP2;P2;SDS_P1;SDS_P2;PMS_P1;PMS_P2;Temp;Humidity;BMP_temperature;BMP_pressure;BME280_temperature;BME280_humidity;BME280_pressure;Samples;Min_cycle;Max_cycle;Signal;HPM_P1;HPM_P2
2021/03/17 00:01:06;;;;;;;8.83;3.70;;;;;;;5.58;59.80;100966.91;5061236;28;20511;-82
2021/03/17 00:03:33;;;;;;;10.73;4.80;;;;;;;5.61;59.60;100969.38;5061006;28;20511;-82
2021/03/17 00:06:00;;;;;;;9.07;4.87;;;;;;;5.67;59.57;100973.47;5060318;28;20521;-83
2021/03/17 00:08:26;;;;;;;5.53;3.90;;;;;;;5.76;59.41;100966.75;5060734;28;20453;-84
2021/03/17 00:10:53;;;;;;;6.57;4.57;;;;;;;5.83;59.31;100973.38;5060632;28;20480;-82
2021/03/17 00:13:21;;;;;;;15.97;4.50;;;;;;;5.86;59.01;100975.88;5063489;28;20429;-80
2021/03/17 00:15:47;;;;;;;11.20;5.20;;;;;;;5.78;59.16;100975.47;5064378;28;20473;-80
2021/03/17 00:18:14;;;;;;;8.60;4.83;;;;;;;5.73;59.56;100978.41;5046186;28;20454;-81
2021/03/17 00:20:42;;;;;;;7.33;4.53;;;;;;;5.46;60.30;100972.94;5046733;28;20503;-82
2021/03/17 00:23:08;;;;;;;8.10;4.40;;;;;;;5.31;60.64;100969.38;5052995;28;20472;-80
2021/03/17 00:25:36;;;;;;;8.67;5.03;;;;;;;5.33;61.00;100982.53;5045834;28;20479;-81
2021/03/17 00:28:03;;;;;;;11.27;4.00;;;;;;;5.51;60.59;100980.63;5059931;28;20460;-80
2021/03/17 00:30:29;;;;;;;9.47;4.40;;;;;;;5.64;60.32;100995.72;5060026;28;20460;-81
2021/03/17 00:32:56;;;;;;;11.47;5.60;;;;;;;5.79;60.04;100985.13;5061307;28;20475;-82
2021/03/17 00:35:23;;;;;;;7.40;5.30;;;;;;;5.90;59.57;100988.00;5060110;28;20471;-78
2021/03/17 00:37:50;;;;;;;15.67;4.80;;;;;;;5.92;59.70;100998.53;5061310;28;20528;-81
2021/03/17 00:40:16;;;;;;;16.50;5.80;;;;;;;5.82;60.31;100983.16;5060522;28;20468;-82
2021/03/17 00:42:55;;;;;;;11.73;4.30;;;;;;;5.83;60.31;100984.00;5061400;28;20430;-82
2021/03/17 00:45:21;;;;;;;10.17;4.53;;;;;;;5.75;60.48;100989.78;5060283;28;20477;-82
2021/03/17 00:47:47;;;;;;;7.50;3.77;;;;;;;5.57;60.82;100983.78;5060810;28;20459;-82
2021/03/17 00:50:16;;;;;;;9.77;4.20;;;;;;;5.63;61.22;100980.75;5059181;28;20457;-82
2021/03/17 00:52:43;;;;;;;8.80;4.53;;;;;;;5.46;62.13;100983.53;5060880;28;20463;-82
2021/03/17 00:55:12;;;;;;;8.90;4.30;;;;;;;5.30;62.49;100978.28;5060079;28;20453;-80
2021/03/17 00:57:38;;;;;;;10.83;4.60;;;;;;;5.45;62.26;100982.69;5060877;28;20502;-79
2021/03/17 01:00:07;;;;;;;5.83;3.73;;;;;;;5.52;62.03;100979.66;5059940;28;20882;-77
2021/03/17 01:02:33;;;;;;;9.10;3.37;;;;;;;5.78;61.30;100983.41;5060401;28;20488;-82
2021/03/17 01:05:27;;;;;;;8.63;4.17;;;;;;;5.94;61.17;100989.53;5061053;28;20485;-81
2021/03/17 01:07:53;;;;;;;8.40;3.50;;;;;;;5.93;61.47;100994.94;5060240;28;20464;-82
2021/03/17 01:10:25;;;;;;;9.07;3.80;;;;;;;6.02;61.03;100989.97;5059977;28;20449;-81
2021/03/17 01:12:51;;;;;;;9.10;2.83;;;;;;;6.01;60.96;100984.75;5060640;28;20456;-81
2021/03/17 01:15:20;;;;;;;10.87;2.77;;;;;;;6.06;60.78;100984.44;5060458;28;20444;-80
2021/03/17 01:17:46;;;;;;;13.83;3.03;;;;;;;6.05;61.19;100986.25;5060013;28;20461;-81
2021/03/17 01:20:14;;;;;;;4.50;2.63;;;;;;;6.11;61.01;100988.53;5060029;28;20452;-82
2021/03/17 01:22:40;;;;;;;9.33;3.43;;;;;;;6.39;60.08;100994.81;5060436;28;20449;-78
2021/03/17 01:25:10;;;;;;;7.37;2.63;;;;;;;6.46;60.16;100982.84;5060356;28;21052;-80
2021/03/17 01:27:37;;;;;;;6.83;3.20;;;;;;;6.49;60.46;100981.78;5060812;28;20449;-79
2021/03/17 01:30:05;;;;;;;6.57;2.67;;;;;;;6.20;61.25;100985.31;5060110;28;20472;-80
2021/03/17 01:32:31;;;;;;;8.27;3.00;;;;;;;6.47;61.02;100986.34;5060526;28;20495;-78
2021/03/17 01:34:57;;;;;;;7.57;2.70;;;;;;;6.59;60.93;100982.94;5064311;28;20444;-79
2021/03/17 01:37:23;;;;;;;10.20;2.77;;;;;;;6.64;60.77;100983.50;5063543;28;20492;-80
2021/03/17 01:39:49;;;;;;;11.73;3.27;;;;;;;6.68;60.91;100986.81;5064010;28;20480;-80
2021/03/17 01:42:15;;;;;;;8.90;2.70;;;;;;;6.68;60.60;100982.34;5063365;28;20547;-81
2021/03/17 01:44:42;;;;;;;8.10;2.90;;;;;;;6.48;61.52;100983.59;5064264;28;20488;-79
2021/03/17 01:47:09;;;;;;;10.00;3.80;;;;;;;6.65;61.10;100992.31;5063045;28;20491;-80
2021/03/17 01:49:35;;;;;;;11.10;3.17;;;;;;;6.56;61.75;100980.44;5063054;28;20481;-81
2021/03/17 01:52:01;;;;;;;8.07;3.10;;;;;;;6.33;62.77;100993.38;5062746;28;20508;-80
2021/03/17 01:54:28;;;;;;;9.17;3.13;;;;;;;6.11;63.44;100985.91;5064022;28;20449;-80
2021/03/17 01:56:54;;;;;;;6.83;2.70;;;;;;;6.16;63.55;100990.91;5062762;28;20483;-79
2021/03/17 01:59:21;;;;;;;9.33;2.97;;;;;;;6.22;63.17;100991.38;5062280;28;20499;-81
2021/03/17 02:01:48;;;;;;;14.40;3.80;;;;;;;6.41;62.95;100974.31;5062887;28;20481;-81
2021/03/17 02:04:15;;;;;;;4.93;2.97;;;;;;;6.41;62.87;100977.81;5063263;28;20476;-80
2021/03/17 02:06:41;;;;;;;5.40;3.13;;;;;;;6.38;62.80;100985.97;5062973;28;21134;-81
2021/03/17 02:09:07;;;;;;;8.63;3.00;;;;;;;6.37;62.66;100976.31;5063741;28;20471;-81
2021/03/17 02:11:39;;;;;;;10.40;3.40;;;;;;;6.26;63.51;100985.88;5063736;28;21211;-80
2021/03/17 02:14:16;;;;;;;8.10;2.97;;;;;;;6.24;63.48;100988.63;5063671;28;20452;-80
2021/03/17 02:16:49;;;;;;;13.47;4.50;;;;;;;6.34;63.37;100987.13;5060661;28;20465;-80
2021/03/17 02:19:31;;;;;;;8.83;3.07;;;;;;;6.30;62.86;100977.66;5063038;28;20519;-81
2021/03/17 02:22:21;;;;;;;7.10;3.13;;;;;;;6.44;62.49;100973.25;5062841;28;20987;-80
2021/03/17 02:24:50;;;;;;;4.73;2.60;;;;;;;6.52;62.40;100965.66;5063299;28;20480;-81
2021/03/17 02:27:44;;;;;;;10.40;4.63;;;;;;;6.50;62.73;100975.53;5062130;28;20488;-80
2021/03/17 02:30:33;;;;;;;7.47;2.73;;;;;;;6.32;62.94;100980.19;5057606;28;21039;-81
2021/03/17 02:33:27;;;;;;;11.93;4.40;;;;;;;6.54;62.68;100977.03;5062851;28;20840;-80
2021/03/17 02:35:56;;;;;;;7.00;2.83;;;;;;;6.65;62.11;100976.34;5062584;28;20499;-80
2021/03/17 02:38:23;;;;;;;6.73;2.80;;;;;;;6.45;62.81;100970.50;5062494;28;20487;-80
2021/03/17 02:40:51;;;;;;;10.57;3.40;;;;;;;6.55;62.70;100973.44;5062528;28;20536;-81
2021/03/17 02:43:20;;;;;;;8.73;3.30;;;;;;;6.50;62.70;100971.06;5062569;28;20484;-80
2021/03/17 02:45:49;;;;;;;9.20;3.60;;;;;;;6.54;62.35;100972.56;5062094;28;20491;-80
2021/03/17 02:48:21;;;;;;;6.63;3.43;;;;;;;6.63;62.12;100973.81;5062449;28;20457;-82
2021/03/17 02:50:48;;;;;;;9.10;3.50;;;;;;;6.59;62.10;100974.94;5061010;28;20548;-81
2021/03/17 02:53:16;;;;;;;7.77;3.20;;;;;;;6.57;62.40;100972.38;5062870;28;20464;-80
2021/03/17 02:55:48;;;;;;;7.23;3.23;;;;;;;6.54;62.18;100961.94;5062108;28;20496;-81
2021/03/17 02:58:14;;;;;;;12.27;5.13;;;;;;;6.65;62.15;100965.72;5062195;28;20461;-81
2021/03/17 03:00:41;;;;;;;7.80;4.00;;;;;;;6.35;63.04;100970.25;5059759;28;21007;-81
2021/03/17 03:03:07;;;;;;;6.00;3.50;;;;;;;6.39;62.98;100969.09;5042594;28;20486;-81
2021/03/17 03:05:34;;;;;;;8.33;4.23;;;;;;;6.47;62.81;100960.63;5056873;28;20473;-81
2021/03/17 03:08:01;;;;;;;8.50;4.00;;;;;;;6.33;63.35;100965.97;5056704;28;20811;-81
2021/03/17 03:10:30;;;;;;;7.07;4.33;;;;;;;6.45;62.99;100961.69;5051938;28;20469;-80
2021/03/17 03:12:58;;;;;;;7.10;3.20;;;;;;;6.49;62.75;100965.84;5062301;28;20456;-81
2021/03/17 03:15:27;;;;;;;9.93;4.27;;;;;;;6.58;62.59;100959.97;5061588;28;20479;-81
2021/03/17 03:17:55;;;;;;;9.90;4.20;;;;;;;6.46;62.90;100953.63;5062275;28;20476;-81
2021/03/17 03:20:23;;;;;;;13.27;3.90;;;;;;;6.41;63.16;100950.41;5060898;28;20821;-80
2021/03/17 03:22:50;;;;;;;8.50;4.40;;;;;;;6.31;63.38;100966.06;5062183;28;20964;-81
2021/03/17 03:25:16;;;;;;;6.73;4.50;;;;;;;6.37;63.46;100963.03;5061374;28;20513;-81
2021/03/17 03:27:44;;;;;;;7.97;4.10;;;;;;;6.12;64.36;100969.00;5061593;28;20457;-79
2021/03/17 03:30:13;;;;;;;8.03;4.17;;;;;;;6.31;63.88;100966.06;5061133;28;20883;-81
2021/03/17 03:32:40;;;;;;;8.60;4.27;;;;;;;6.02;64.91;100983.78;5062078;28;20508;-80
2021/03/17 03:35:08;;;;;;;10.07;3.87;;;;;;;6.05;64.96;100974.78;5061490;28;20453;-80
2021/03/17 03:37:35;;;;;;;8.37;4.27;;;;;;;5.88;65.31;100973.97;5061826;28;20468;-80
2021/03/17 03:40:01;;;;;;;7.30;4.63;;;;;;;6.01;65.08;100967.00;5061862;28;20441;-81
2021/03/17 03:42:27;;;;;;;9.37;4.50;;;;;;;5.92;65.10;100969.31;5061271;28;20481;-81
2021/03/17 03:44:54;;;;;;;6.70;3.77;;;;;;;5.66;65.65;100969.97;5061920;28;20493;-81
2021/03/17 03:47:20;;;;;;;6.20;3.80;;;;;;;5.71;65.51;100968.81;5060883;28;20515;-79
2021/03/17 03:49:47;;;;;;;8.17;3.47;;;;;;;5.63;65.47;100964.81;5060740;28;20530;-81
2021/03/17 03:52:14;;;;;;;6.00;3.80;;;;;;;5.84;64.99;100973.31;5060941;28;20480;-81
2021/03/17 03:54:43;;;;;;;9.80;4.00;;;;;;;5.53;65.58;100970.78;5061919;28;20449;-81
2021/03/17 03:57:14;;;;;;;6.43;3.67;;;;;;;5.49;65.43;100985.19;5060244;28;20473;-83
2021/03/17 03:59:43;;;;;;;12.60;4.17;;;;;;;5.57;64.92;100985.56;5060897;28;20457;-80
2021/03/17 04:02:12;;;;;;;7.50;3.23;;;;;;;5.78;64.41;100980.78;5060639;28;20518;-82
2021/03/17 04:04:42;;;;;;;6.00;3.37;;;;;;;5.93;63.73;100974.53;5061428;28;20491;-82
2021/03/17 04:07:10;;;;;;;7.53;3.00;;;;;;;5.93;63.31;100984.31;5060986;28;20496;-82
2021/03/17 04:09:41;;;;;;;8.30;3.50;;;;;;;5.72;63.73;100984.66;5060763;28;20582;-82
2021/03/17 04:12:12;;;;;;;5.03;2.93;;;;;;;5.79;63.47;100980.69;5060321;28;20519;-81
2021/03/17 04:14:38;;;;;;;7.17;3.00;;;;;;;5.89;62.74;100974.84;5061806;28;20494;-82
2021/03/17 04:17:08;;;;;;;5.97;3.13;;;;;;;5.94;62.67;100980.72;5060486;28;20508;-82
2021/03/17 04:19:36;;;;;;;9.67;2.80;;;;;;;5.80;62.32;100979.75;5061140;28;20476;-82
2021/03/17 04:22:03;;;;;;;5.70;2.57;;;;;;;5.90;62.09;100980.03;5060903;28;20487;-81
2021/03/17 04:24:30;;;;;;;6.20;2.63;;;;;;;5.81;62.25;100984.09;5060945;28;20512;-82
2021/03/17 04:26:58;;;;;;;12.67;3.23;;;;;;;5.83;61.95;100981.34;5060685;28;20476;-81
2021/03/17 04:29:25;;;;;;;3.80;3.40;;;;;;;5.92;61.25;100983.47;5060801;28;20449;-80
2021/03/17 04:31:52;;;;;;;8.40;2.13;;;;;;;5.78;61.50;100988.72;5060171;28;20548;-80
2021/03/17 04:34:19;;;;;;;3.67;2.30;;;;;;;5.87;61.13;100993.50;5061155;28;20528;-81
2021/03/17 04:36:46;;;;;;;4.40;2.23;;;;;;;5.96;60.95;100990.31;5060266;28;20500;-84
2021/03/17 04:39:13;;;;;;;4.63;2.27;;;;;;;5.98;60.65;100983.13;5060887;28;20456;-82
2021/03/17 04:41:39;;;;;;;4.87;2.20;;;;;;;6.01;60.46;100988.25;5040987;28;20493;-82
2021/03/17 04:44:06;;;;;;;4.13;2.30;;;;;;;5.85;60.85;100993.59;5041015;28;20466;-81
2021/03/17 04:46:35;;;;;;;6.30;1.97;;;;;;;6.01;60.57;100998.84;5059843;28;20544;-82
2021/03/17 04:49:01;;;;;;;3.23;2.33;;;;;;;5.97;60.24;100996.47;5060727;28;20623;-81
2021/03/17 04:51:27;;;;;;;3.00;1.60;;;;;;;5.87;60.51;100997.94;5060080;28;20509;-80
2021/03/17 04:53:54;;;;;;;7.03;2.03;;;;;;;5.96;60.45;101008.91;5060891;28;20548;-81
2021/03/17 04:56:21;;;;;;;3.20;2.20;;;;;;;5.70;61.23;101015.72;5060846;28;20476;-82
2021/03/17 04:58:49;;;;;;;4.50;1.80;;;;;;;5.72;61.25;101020.94;5060295;28;20912;-81
2021/03/17 05:01:16;;;;;;;4.03;1.90;;;;;;;5.76;61.41;101022.47;5060214;28;20465;-82
2021/03/17 05:03:43;;;;;;;3.13;1.60;;;;;;;6.00;60.38;101021.03;5060504;28;20515;-82
2021/03/17 05:06:10;;;;;;;3.10;1.60;;;;;;;6.01;60.21;101016.59;5052395;28;20565;-80
2021/03/17 05:08:37;;;;;;;3.30;1.60;;;;;;;5.79;60.96;101023.13;5054551;28;20476;-83
2021/03/17 05:11:04;;;;;;;4.40;1.70;;;;;;;5.83;60.73;101018.50;5063482;28;20504;-83
2021/03/17 05:13:31;;;;;;;4.07;2.23;;;;;;;5.78;61.30;101018.78;5057534;28;20459;-83
2021/03/17 05:15:58;;;;;;;4.00;1.83;;;;;;;5.76;61.33;101014.50;5052843;28;20472;-84
2021/03/17 05:18:25;;;;;;;5.30;2.50;;;;;;;5.82;60.94;101014.16;5063619;28;20928;-83
2021/03/17 05:20:52;;;;;;;3.27;1.53;;;;;;;5.96;60.86;101016.03;5062609;28;20473;-83
2021/03/17 05:23:19;;;;;;;4.10;2.00;;;;;;;5.66;61.35;101016.88;5063553;28;20448;-85
2021/03/17 05:25:45;;;;;;;5.43;1.77;;;;;;;5.90;60.75;101006.56;5054856;28;20516;-83
2021/03/17 05:28:14;;;;;;;5.00;2.13;;;;;;;5.93;60.55;101017.00;5063006;28;20571;-85
2021/03/17 05:30:41;;;;;;;3.10;2.17;;;;;;;5.84;61.20;101015.75;5062866;28;20471;-84
2021/03/17 05:33:08;;;;;;;5.63;1.50;;;;;;;6.09;60.56;101018.78;5063745;28;20471;-86
2021/03/17 05:35:35;;;;;;;4.40;1.80;;;;;;;6.18;60.17;101021.75;5062909;28;20461;-82
2021/03/17 05:38:04;;;;;;;3.83;1.60;;;;;;;6.26;60.12;101026.56;5063307;28;20459;-82
2021/03/17 05:40:31;;;;;;;8.47;1.60;;;;;;;6.09;60.33;101018.78;5062640;28;20532;-82
2021/03/17 05:43:00;;;;;;;7.23;1.93;;;;;;;6.21;60.94;101021.56;5062366;28;20448;-82
2021/03/17 05:45:27;;;;;;;8.07;2.00;;;;;;;6.17;60.58;101021.81;5057337;28;20500;-84
2021/03/17 05:47:54;;;;;;;5.77;1.73;;;;;;;6.02;61.35;101026.25;5045746;28;20461;-83
2021/03/17 05:50:22;;;;;;;3.90;2.40;;;;;;;5.80;61.89;101014.25;5059704;28;20445;-83
2021/03/17 05:52:48;;;;;;;4.37;2.40;;;;;;;5.75;62.65;101013.66;5062698;28;20507;-83
2021/03/17 05:55:16;;;;;;;5.20;2.00;;;;;;;5.83;62.53;101015.84;5062335;28;20445;-84
2021/03/17 05:57:44;;;;;;;5.37;2.00;;;;;;;5.94;61.60;101025.84;5061866;28;20487;-83
2021/03/17 06:00:12;;;;;;;5.67;2.30;;;;;;;5.99;61.69;101014.03;5061668;28;20491;-83
2021/03/17 06:02:40;;;;;;;6.00;2.63;;;;;;;5.95;61.69;101016.91;5063259;28;20488;-82
2021/03/17 06:05:08;;;;;;;3.90;1.80;;;;;;;5.85;62.00;101027.25;5047368;28;21023;-85
2021/03/17 06:07:42;;;;;;;4.00;2.43;;;;;;;5.75;62.22;101021.63;5042743;28;20473;-84
2021/03/17 06:10:09;;;;;;;4.00;1.83;;;;;;;5.98;62.25;101019.44;5060185;28;21170;-87
2021/03/17 06:12:37;;;;;;;10.40;3.03;;;;;;;6.01;61.58;101021.91;5061007;28;20689;-82
2021/03/17 06:15:04;;;;;;;5.87;2.40;;;;;;;5.98;62.24;101020.28;5062678;28;20456;-82
2021/03/17 06:17:31;;;;;;;7.10;1.90;;;;;;;5.86;62.41;101034.25;5040954;28;20946;-84
2021/03/17 06:20:03;;;;;;;4.37;2.37;;;;;;;5.65;62.92;101031.91;5035788;28;20453;-83
2021/03/17 06:22:29;;;;;;;6.40;2.10;;;;;;;6.06;61.47;101032.22;5037479;28;20559;-83
2021/03/17 06:24:56;;;;;;;11.97;2.53;;;;;;;5.83;62.34;101039.72;5033172;28;20509;-86
2021/03/17 06:27:22;;;;;;;8.37;2.27;;;;;;;6.10;61.54;101039.06;5036898;28;20465;-84
2021/03/17 06:29:49;;;;;;;3.67;2.40;;;;;;;6.20;61.43;101038.44;5042624;28;20453;-84
2021/03/17 06:32:15;;;;;;;5.47;2.93;;;;;;;6.22;61.46;101046.31;5042451;28;20478;-84
2021/03/17 06:34:46;;;;;;;4.33;2.00;;;;;;;6.29;61.18;101033.50;5043459;28;20530;-85
2021/03/17 06:37:13;;;;;;;6.90;2.43;;;;;;;6.59;59.99;101046.69;5041330;28;20516;-81
2021/03/17 06:39:39;;;;;;;14.00;3.70;;;;;;;6.82;59.79;101039.06;5041019;28;20506;-83
2021/03/17 06:42:07;;;;;;;3.40;2.10;;;;;;;6.73;59.95;101049.34;5038229;28;20484;-82
2021/03/17 06:44:33;;;;;;;4.87;3.03;;;;;;;6.37;60.39;101044.50;5041222;28;20498;-82
2021/03/17 06:47:19;;;;;;;6.67;2.40;;;;;;;6.74;60.06;101045.72;5041007;28;20477;-81
2021/03/17 06:49:47;;;;;;;3.90;2.50;;;;;;;6.60;60.13;101030.66;5038341;28;20467;-83
2021/03/17 06:52:30;;;;;;;3.40;2.13;;;;;;;6.45;61.55;101034.25;5029001;28;20508;-84
2021/03/17 06:55:15;;;;;;;4.93;2.33;;;;;;;6.64;60.64;101044.59;5042267;28;20481;-85
2021/03/17 06:57:45;;;;;;;8.43;2.50;;;;;;;6.62;60.58;101045.66;5042040;28;20457;-85
2021/03/17 07:00:39;;;;;;;5.63;2.30;;;;;;;6.71;60.29;101040.59;5043456;28;20442;-86
2021/03/17 07:03:06;;;;;;;5.23;2.10;;;;;;;6.60;60.54;101041.28;5082962;28;20479;-82
2021/03/17 07:05:37;;;;;;;4.10;2.20;;;;;;;6.49;60.69;101035.81;5062821;28;20480;-88
2021/03/17 07:08:06;;;;;;;5.40;2.50;;;;;;;6.57;60.38;101046.78;5062216;28;20453;-84
2021/03/17 07:10:35;;;;;;;9.67;2.37;;;;;;;6.52;60.73;101043.56;5057079;28;20470;-82
2021/03/17 07:13:02;;;;;;;6.67;2.30;;;;;;;6.28;61.62;101039.75;5033993;28;20455;-84
2021/03/17 07:15:28;;;;;;;4.87;2.80;;;;;;;6.71;60.20;101043.25;5023624;28;20514;-85
2021/03/17 07:18:12;;;;;;;7.47;3.20;;;;;;;6.54;60.61;101046.97;5021903;28;20459;-84
2021/03/17 07:20:46;;;;;;;10.33;2.83;;;;;;;6.95;59.75;101042.69;5041059;28;20465;-82
2021/03/17 07:23:33;;;;;;;4.33;2.10;;;;;;;6.96;59.82;101047.91;5028948;28;20561;-86
2021/03/17 07:26:20;;;;;;;5.83;2.33;;;;;;;6.99;59.61;101041.53;5032767;28;20482;-82
2021/03/17 07:29:00;;;;;;;12.17;2.50;;;;;;;6.79;60.14;101051.63;5046156;28;20473;-88
2021/03/17 07:31:28;;;;;;;5.37;2.27;;;;;;;7.20;59.37;101054.38;5057529;28;20914;-86
2021/03/17 07:33:55;;;;;;;7.70;2.70;;;;;;;7.14;59.77;101050.34;5075863;28;20453;-86
2021/03/17 07:36:33;;;;;;;4.23;2.20;;;;;;;6.91;59.89;101052.66;5059580;28;20526;-88
2021/03/17 07:39:05;;;;;;;6.93;2.20;;;;;;;7.22;59.38;101055.13;5042273;28;20453;-86
2021/03/17 07:41:31;;;;;;;3.70;2.20;;;;;;;7.15;59.45;101052.00;5044658;28;20469;-82
2021/03/17 07:43:58;;;;;;;4.30;2.43;;;;;;;7.15;59.11;101058.22;5055222;28;20473;-85
2021/03/17 07:46:25;;;;;;;6.10;2.03;;;;;;;7.08;59.44;101059.56;5060946;28;20465;-86
2021/03/17 07:48:51;;;;;;;5.67;2.33;;;;;;;7.56;58.08;101063.59;5061885;28;20464;-84
2021/03/17 07:51:19;;;;;;;5.17;2.50;;;;;;;7.69;57.48;101062.69;5059735;28;20858;-84
2021/03/17 07:53:50;;;;;;;6.00;2.57;;;;;;;7.73;57.57;101069.50;5061595;28;20445;-84
2021/03/17 07:56:20;;;;;;;5.27;1.90;;;;;;;7.79;57.31;101072.72;5060835;28;20536;-83
2021/03/17 07:58:48;;;;;;;7.20;2.73;;;;;;;8.31;56.03;101069.16;5059534;28;20481;-83
2021/03/17 08:01:15;;;;;;;10.73;3.07;;;;;;;8.98;54.56;101066.25;5060762;28;20491;-83
2021/03/17 08:03:42;;;;;;;5.97;2.50;;;;;;;9.19;53.19;101066.53;5060738;28;20480;-86
2021/03/17 08:06:09;;;;;;;3.83;2.07;;;;;;;8.23;54.84;101072.38;5055649;28;20504;-82
2021/03/17 08:08:36;;;;;;;9.93;2.10;;;;;;;8.13;55.56;101071.28;5060778;28;20457;-86
2021/03/17 08:11:02;;;;;;;5.87;2.30;;;;;;;7.57;57.27;101076.81;5053979;28;20477;-80
2021/03/17 08:13:30;;;;;;;8.17;2.60;;;;;;;6.95;57.83;101085.22;5056997;28;20875;-85
2021/03/17 08:15:56;;;;;;;9.37;2.40;;;;;;;6.75;57.39;101076.69;5060289;28;20556;-85
2021/03/17 08:18:43;;;;;;;8.13;2.57;;;;;;;6.73;57.83;101083.03;5056974;28;20508;-81
2021/03/17 08:21:09;;;;;;;5.50;2.20;;;;;;;7.01;56.95;101076.84;5054659;28;20472;-85
2021/03/17 08:23:40;;;;;;;6.77;2.63;;;;;;;7.04;56.76;101079.31;5061653;28;20479;-84
2021/03/17 08:26:06;;;;;;;4.77;2.33;;;;;;;6.84;56.86;101079.69;5059526;28;20492;-84
2021/03/17 08:28:46;;;;;;;6.50;1.87;;;;;;;6.66;57.46;101089.69;5059447;28;20632;-87
2021/03/17 08:31:49;;;;;;;7.27;2.40;;;;;;;6.50;57.13;101093.28;5051261;28;20481;-83
2021/03/17 08:34:28;;;;;;;3.47;2.30;;;;;;;6.66;57.40;101090.53;5041170;28;20545;-83
2021/03/17 08:36:57;;;;;;;5.60;2.00;;;;;;;6.75;56.68;101091.75;5050881;28;20520;-82
2021/03/17 08:39:43;;;;;;;9.20;2.60;;;;;;;6.58;56.75;101093.66;5043612;28;20449;-79
2021/03/17 08:42:10;;;;;;;5.43;3.27;;;;;;;6.51;56.33;101089.69;5061460;28;21023;-81
2021/03/17 08:44:49;;;;;;;9.07;2.53;;;;;;;6.90;55.68;101084.66;5064155;28;20496;-83
2021/03/17 08:47:18;;;;;;;3.87;2.40;;;;;;;7.34;55.19;101091.59;5064000;28;20535;-83
2021/03/17 08:49:46;;;;;;;4.77;2.67;;;;;;;6.87;54.65;101088.34;5064207;28;20986;-82
2021/03/17 08:52:14;;;;;;;7.57;2.30;;;;;;;7.19;54.07;101090.78;5063353;28;20496;-84
2021/03/17 08:54:54;;;;;;;8.00;2.10;;;;;;;6.95;53.47;101094.03;5064629;28;20441;-83
2021/03/17 08:57:21;;;;;;;4.30;1.73;;;;;;;7.38;52.53;101086.91;5062740;28;20480;-84
2021/03/17 08:59:50;;;;;;;8.80;1.93;;;;;;;7.08;53.00;101091.47;5063327;28;20551;-83
2021/03/17 09:02:20;;;;;;;4.70;1.80;;;;;;;7.51;52.38;101091.34;5043836;28;20504;-83
2021/03/17 09:04:48;;;;;;;7.60;2.13;;;;;;;7.38;52.70;101095.78;5055335;28;21015;-83
2021/03/17 09:07:14;;;;;;;5.50;1.90;;;;;;;7.10;51.80;101096.66;5059760;28;20504;-84
2021/03/17 09:09:48;;;;;;;3.53;1.57;;;;;;;7.61;51.15;101101.41;5063086;28;20433;-83
2021/03/17 09:12:15;;;;;;;3.10;1.90;;;;;;;7.41;51.21;101089.38;5056454;28;20485;-84
2021/03/17 09:14:42;;;;;;;4.00;1.90;;;;;;;7.72;50.46;101101.53;5047773;28;20475;-84
2021/03/17 09:17:30;;;;;;;5.13;1.40;;;;;;;7.22;49.64;101095.03;5046246;28;20473;-84
2021/03/17 09:20:15;;;;;;;6.50;1.60;;;;;;;7.30;49.08;101090.09;5065741;28;20943;-84
2021/03/17 09:22:50;;;;;;;6.73;1.50;;;;;;;6.96;48.69;101100.19;5035561;28;20466;-85
2021/03/17 09:25:25;;;;;;;7.27;1.60;;;;;;;7.09;48.20;101108.28;5042485;28;20488;-85
2021/03/17 09:27:54;;;;;;;2.10;1.43;;;;;;;7.08;48.14;101103.88;5048832;28;20532;-85
2021/03/17 09:30:22;;;;;;;10.40;2.20;;;;;;;7.45;47.95;101090.91;5058248;28;20453;-84
2021/03/17 09:32:50;;;;;;;7.60;1.87;;;;;;;7.78;45.95;101085.16;5047514;28;20468;-79
2021/03/17 09:35:17;;;;;;;6.00;1.67;;;;;;;7.68;46.58;101092.91;5062865;28;20449;-85
2021/03/17 09:37:44;;;;;;;6.67;1.40;;;;;;;8.21;44.84;101089.41;5057696;28;20456;-85
2021/03/17 09:40:14;;;;;;;4.50;1.40;;;;;;;7.96;44.89;101088.41;5054060;28;20456;-84
2021/03/17 09:42:43;;;;;;;3.13;1.50;;;;;;;8.22;44.68;101086.63;5042921;28;20485;-87
2021/03/17 09:45:10;;;;;;;6.03;1.20;;;;;;;9.00;41.62;101085.66;5054721;28;20489;-80
2021/03/17 09:47:37;;;;;;;6.67;3.00;;;;;;;8.63;42.07;101085.63;5046864;28;20533;-86
2021/03/17 09:50:15;;;;;;;7.03;2.00;;;;;;;9.09;42.12;101091.31;5063628;28;20464;-83
2021/03/17 09:52:43;;;;;;;4.87;1.67;;;;;;;9.55;40.13;101088.81;5062482;28;20518;-86
2021/03/17 09:55:26;;;;;;;2.70;1.70;;;;;;;9.09;41.08;101080.66;5072655;28;20467;-84
2021/03/17 09:57:58;;;;;;;4.00;1.50;;;;;;;8.76;40.81;101082.09;5060944;28;20465;-82
2021/03/17 10:00:24;;;;;;;2.80;1.40;;;;;;;8.90;41.13;101084.63;5062722;28;20460;-85
2021/03/17 10:02:50;;;;;;;3.53;1.50;;;;;;;9.28;40.51;101088.16;5052912;28;20492;-87
2021/03/17 10:05:18;;;;;;;3.33;1.27;;;;;;;9.38;40.75;101086.53;5059119;28;21110;-88
2021/03/17 10:07:44;;;;;;;8.70;3.17;;;;;;;9.74;40.22;101090.97;5063067;28;20809;-84
2021/03/17 10:10:11;;;;;;;5.80;1.67;;;;;;;9.45;41.08;101087.78;5055544;28;20461;-89
2021/03/17 10:12:37;;;;;;;4.03;1.30;;;;;;;8.89;42.81;101088.28;5048790;28;20456;-87
2021/03/17 10:15:08;;;;;;;4.27;1.40;;;;;;;8.80;42.57;101083.56;5074341;28;20437;-85
2021/03/17 10:17:35;;;;;;;3.60;1.10;;;;;;;8.97;41.99;101082.38;5064762;28;20538;-86
2021/03/17 10:20:05;;;;;;;2.60;1.30;;;;;;;9.33;41.57;101081.53;5060005;28;20462;-87
2021/03/17 10:22:32;;;;;;;5.00;1.27;;;;;;;9.51;41.25;101086.47;5042467;28;20505;-84
2021/03/17 10:25:00;;;;;;;4.00;1.40;;;;;;;9.56;41.06;101089.66;5039879;28;20504;-86
2021/03/17 10:27:27;;;;;;;3.83;1.33;;;;;;;10.23;38.97;101094.41;5040897;28;20470;-86
2021/03/17 10:30:00;;;;;;;4.20;1.20;;;;;;;10.31;39.62;101096.50;5040984;28;20493;-82
2021/03/17 10:32:26;;;;;;;4.87;1.70;;;;;;;10.64;38.69;101098.41;5040974;28;20480;-86
2021/03/17 10:34:53;;;;;;;7.13;1.93;;;;;;;9.64;40.82;101094.44;5039340;28;20485;-88
2021/03/17 10:37:21;;;;;;;5.57;1.87;;;;;;;9.08;42.38;101094.94;5041104;28;20485;-84
2021/03/17 10:39:49;;;;;;;3.00;1.60;;;;;;;8.99;42.95;101094.66;5057501;28;20453;-82
2021/03/17 10:42:20;;;;;;;5.33;2.23;;;;;;;8.92;42.80;101096.03;5040457;27;20458;-84
2021/03/17 10:45:00;;;;;;;4.20;2.40;;;;;;;9.08;43.13;101089.59;5040229;28;20521;-83
2021/03/17 10:47:27;;;;;;;3.63;1.30;;;;;;;8.59;44.39;101100.13;5037932;28;20584;-87
2021/03/17 10:49:53;;;;;;;8.47;1.43;;;;;;;8.47;44.59;101096.50;5039805;28;20965;-85
2021/03/17 10:52:19;;;;;;;2.83;1.20;;;;;;;8.82;44.03;101095.00;5040148;28;20536;-86
2021/03/17 10:54:46;;;;;;;6.20;1.77;;;;;;;8.96;43.96;101092.19;5041010;28;20445;-87
2021/03/17 10:57:21;;;;;;;4.40;1.40;;;;;;;8.85;44.99;101098.31;5039527;28;20470;-86
2021/03/17 10:59:47;;;;;;;4.07;1.33;;;;;;;8.75;44.92;101099.91;5040127;28;20452;-85
2021/03/17 11:02:25;;;;;;;5.83;1.67;;;;;;;8.64;45.52;101105.97;5039238;28;20473;-86
2021/03/17 11:05:20;;;;;;;7.33;1.70;;;;;;;9.31;44.23;101102.13;5030440;28;20494;-86
2021/03/17 11:08:12;;;;;;;5.90;1.90;;;;;;;9.83;44.34;101099.28;4979337;28;20495;-85
2021/03/17 11:10:57;;;;;;;9.83;2.00;;;;;;;9.93;44.19;101093.13;4983204;28;20479;-85
2021/03/17 11:13:28;;;;;;;5.03;1.30;;;;;;;8.90;46.07;101100.63;4992684;28;20594;-86
2021/03/17 11:15:56;;;;;;;5.00;1.40;;;;;;;8.44;46.44;101096.72;4980225;28;20472;-85
2021/03/17 11:18:25;;;;;;;5.37;1.13;;;;;;;8.45;46.35;101094.88;4982004;28;20484;-83
2021/03/17 11:20:53;;;;;;;3.70;1.67;;;;;;;8.54;46.49;101093.41;4978899;28;20460;-87
2021/03/17 11:23:20;;;;;;;6.47;3.00;;;;;;;7.81;48.48;101095.63;4985462;28;20443;-85
2021/03/17 11:25:47;;;;;;;8.03;1.70;;;;;;;8.03;48.79;101103.00;4993319;28;20480;-80
2021/03/17 11:28:15;;;;;;;7.73;1.83;;;;;;;8.67;47.02;101095.09;4990489;28;20444;-83
2021/03/17 11:30:43;;;;;;;3.60;1.27;;;;;;;9.15;46.74;101091.72;4984671;28;20476;-86
2021/03/17 11:33:12;;;;;;;5.13;1.63;;;;;;;9.64;46.61;101091.78;4988117;28;20537;-79
2021/03/17 11:35:38;;;;;;;3.20;2.20;;;;;;;9.74;45.17;101090.13;4986445;28;20503;-86
2021/03/17 11:38:04;;;;;;;3.07;1.40;;;;;;;9.60;45.68;101094.66;4982433;28;20444;-83
2021/03/17 11:40:31;;;;;;;7.00;2.30;;;;;;;10.03;44.80;101095.94;4979789;28;20523;-84
2021/03/17 11:43:04;;;;;;;4.57;2.30;;;;;;;10.60;43.56;101094.25;4983110;28;20468;-84